Airfield :
LOGIN :

Register | Disclaimer

   EN    FR    IT 

 










Legend :    VFR   Marginal VFR   IFR   Intensive IFR   Very Intensive IFR
Visi :
Ceiling :
>= 8 km
>= 3000ft
5 to 8 km
1000 to 3000 ft
1500m to 5 km
500 to 1000 ft
800 to 1500m
200 to 500 ft
< 800m
< 200 ft
Symbols :   Thunderstorms  Fog  Heavy snow  Heavy precipitations  Wind > 20 kt
SIGMETs :     Misc.  Thunderstorms  Icing  Turbulence  Mountain Waves  Volcanic Ashes






- Airport Elevation : 297 ft


EGVP - Middle Wallop

CURRENT METAR :
  • 271750Z AUTO 20003KT 5000 // BKN033/// BKN150/// 10/10 Q1009

EXPIRED METARs :
  • 271720Z AUTO 23002KT 4300 -DZ FEW024/// BKN030/// BKN130/// 10/10 Q1009
  • 271650Z AUTO 18003KT 5000 BR FEW006/// OVC029/// 11/10 Q1009
  • 271620Z AUTO 19003KT 5000 BR FEW007/// OVC035/// 11/10 Q1010
  • 271550Z AUTO 22002KT 7000 BR FEW007/// BKN041/// 11/10 Q1010
  • 271520Z AUTO 19004KT 7000 BR SCT006/// SCT089/// 11/10 Q1010

Expired Forecast.
ATIS : +44 1980 674 142



MET'MAP, your aeronautical weather chart ! - Copyright ORBIFLY December 2007 - Disclaimer

ORBIFLY MET'MAP TEAM :

Programming & Development : Alexandra Zaïnal
Original concept : Baudouin d'Aumeries
Technical & hardware support : Manuel Goepfert
Assistance : Marc-Olivier Méhu




SOURCES & CREDITS :

   NOAA